バンダラナイケ国際空港の過去48時間の天気

バンダラナイケ国際空港 (Katunayake)

現在時刻: 5/22 03:48 +0530 (5/21 22:18 UTC) 以下の時間は現地時間です。

過去48時間のMETAR気象情報
時間 風向 風速(m/s) 視程 気温(℃) 湿度(%) 気圧(hPa) 天気現象
22 02:40 不定 1 10km以上 24 94 1006
22 01:40 東南東 2 9,000m 24 94 1007
22 00:40 南南東 2 9,000m 24 94 1007
21 23:40 南東 2 9,000m 24 94 1008
21 22:40 南東 2 9,000m 24 94 1009
21 20:40 南東 3 10km以上 24 94 1008
21 19:40 南東 3 9,000m 25 89 1008
21 18:40 南東 3 9,000m 25 89 1008
21 17:40 東北東 2 8,000m 26 89 1008 弱いしゅう雨
21 16:40 北西 2 10km以上 26 89 1007
21 15:40 西北西 2 9,000m 26 84 1007
21 14:40 西北西 3 9,000m 26 84 1007 弱いしゅう雨
21 13:40 南西 6 10km以上 28 79 1007
21 12:40 西南西 6 10km以上 29 74 1008
21 11:40 西南西 5 8,000m 28 79 1009
21 10:40 西南西 7 9,000m 26 84 1009
21 09:40 南西 5 10km以上 28 79 1009
21 08:40 南西 6 10km以上 28 79 1009
21 07:40 南西 5 10km以上 28 79 1008
21 06:40 西南西 5 10km以上 28 74 1008
21 05:40 西南西 5 10km以上 28 74 1007 周辺で雷
21 04:40 西南西 6 10km以上 28 74 1007 周辺で雷
21 03:40 西南西 6 10km以上 27 84 1006 周辺で雷
21 02:40 西南西 7 10km以上 28 74 1006
21 01:40 西南西 5 10km以上 28 79 1007 周辺で雷
VCBI 212110Z VRB02KT 9999 SCT017 24/23 Q1006 NOSIG
VCBI 212010Z 11003KT 9000 SCT017 24/23 Q1007 NOSIG
VCBI 211910Z 15004KT 9000 FEW018 24/23 Q1007 NOSIG
VCBI 211810Z 14003KT 9000 NSC 24/23 Q1008 NOSIG
VCBI 211710Z 13004KT 110V250 9000 FEW018 24/23 Q1009 NOSIG
VCBI 211510Z 13005KT 080V160 9999 FEW018 24/23 Q1008 NOSIG
VCBI 211410Z 13006KT 9000 FEW018 25/23 Q1008 NOSIG
VCBI 211310Z 13006KT 020V150 9000 FEW018 25/23 Q1008 NOSIG
VCBI 211210Z 07004KT 8000 -SHRA FEW014 SCT018 26/24 Q1008 NOSIG
VCBI 211110Z 31004KT 270V340 9999 FEW013 SCT017 26/24 Q1007 RESHRA NOSIG
VCBI 211010Z 29004KT 240V340 9000 FEW012 SCT014 26/23 Q1007 RESHRA NOSIG RMK E/NE/E
VCBI 210910Z 29006KT 260V020 9000 -SHRA SCT012 FEW016CB 26/23 Q1007 NOSIG RMK N/NW
VCBI 210810Z 23011KT 200V260 9999 FEW012 SCT016 28/24 Q1007 RESHRA NOSIG
VCBI 210710Z 24011KT 9999 FEW012 SCT016 29/24 Q1008 NOSIG
VCBI 210610Z 25009KT 220V280 8000 SCT016 BKN030 28/24 Q1009 NOSIG
VCBI 210510Z 24013KT 210V290 9000 FEW012 SCT016 26/23 Q1009 RESHRA NOSIG
VCBI 210410Z 23010KT 9999 BKN016 28/24 Q1009 NOSIG
VCBI 210310Z 23011KT 9999 BKN016 28/24 Q1009 NOSIG
VCBI 210210Z 23009KT 200V260 9999 BKN016 28/24 Q1008 NOSIG
VCBI 210110Z 25010KT 210V280 9999 BKN014 FEW016CB 28/23 Q1008 NOSIG RMK N/NW
VCBI 210010Z 24009KT 9999 VCTS SCT016 FEW018CB 28/23 Q1007 NOSIG RMK NW/W
VCBI 202310Z 25012KT 220V290 9999 VCTS SCT016 FEW018CB 28/23 Q1007 NOSIG RMK NW/N
VCBI 202210Z 24011KT 9999 VCTS SCT016 FEW018CB 27/24 Q1006 NOSIG RMK NW/N/NE/E
VCBI 202110Z 24014KT 9999 BKN016 FEW018CB 28/23 Q1006 NOSIG RMK E/SE
VCBI 202010Z 24010KT 210V270 9999 VCTS SCT016 FEW018CB 28/24 Q1007 NOSIG RMK NW